createdAt,value
2023-01-25T00:00:48.876Z,19.89
2023-01-25T00:03:15.488Z,19.84
2023-01-25T00:05:42.012Z,19.84
2023-01-25T00:08:08.587Z,19.80
2023-01-25T00:10:35.048Z,19.78
2023-01-25T00:13:01.623Z,19.73
2023-01-25T00:15:28.077Z,19.74
2023-01-25T00:17:54.576Z,19.71
2023-01-25T00:20:21.088Z,19.65
2023-01-25T00:22:47.597Z,19.63
2023-01-25T00:25:14.116Z,19.62
2023-01-25T00:27:40.591Z,19.59
2023-01-25T00:30:07.816Z,19.55
2023-01-25T00:32:47.962Z,19.56
2023-01-25T00:35:15.079Z,19.52
2023-01-25T00:37:49.767Z,19.51
2023-01-25T00:40:16.741Z,19.50
2023-01-25T00:42:43.249Z,19.47
2023-01-25T00:45:12.105Z,19.46
2023-01-25T00:47:38.848Z,19.44
2023-01-25T00:50:07.830Z,19.43
2023-01-25T00:52:34.496Z,19.37
2023-01-25T00:55:01.014Z,19.38
2023-01-25T00:57:27.587Z,19.36
2023-01-25T00:59:54.083Z,19.35
2023-01-25T01:02:20.640Z,19.33
2023-01-25T01:04:47.174Z,19.33
2023-01-25T01:07:15.142Z,19.30
2023-01-25T01:09:41.762Z,19.29
2023-01-25T01:12:08.551Z,19.26
2023-01-25T01:14:35.069Z,19.24
2023-01-25T01:17:01.636Z,19.23
2023-01-25T01:19:28.123Z,19.22
2023-01-25T01:21:54.604Z,19.20
2023-01-25T01:24:21.072Z,19.17
2023-01-25T01:26:47.571Z,19.15
2023-01-25T01:29:14.082Z,19.14
2023-01-25T01:31:40.700Z,19.13
2023-01-25T01:34:07.258Z,19.11
2023-01-25T01:36:33.862Z,19.10
2023-01-25T01:39:00.396Z,19.07
2023-01-25T01:41:27.128Z,19.06
2023-01-25T01:43:53.672Z,19.05
2023-01-25T01:46:22.430Z,19.01
2023-01-25T01:49:13.170Z,19.01
2023-01-25T01:51:46.298Z,18.99
2023-01-25T01:54:18.941Z,18.97
2023-01-25T01:56:57.549Z,18.94
2023-01-25T01:59:31.347Z,18.93
2023-01-25T02:01:57.800Z,18.91
2023-01-25T02:04:25.660Z,18.89
2023-01-25T02:07:03.516Z,18.89
2023-01-25T02:09:34.096Z,18.87
2023-01-25T02:12:00.901Z,18.85
2023-01-25T02:14:29.321Z,18.85
2023-01-25T02:16:56.396Z,18.83
2023-01-25T02:19:51.656Z,18.81
2023-01-25T02:22:23.035Z,18.79
2023-01-25T02:25:09.950Z,18.77
2023-01-25T02:27:41.019Z,18.77
2023-01-25T02:30:08.541Z,18.74
2023-01-25T02:32:35.114Z,18.73
2023-01-25T02:35:01.644Z,18.72
2023-01-25T02:37:28.108Z,18.71
2023-01-25T02:39:54.779Z,18.67
2023-01-25T02:42:21.238Z,18.67
2023-01-25T02:44:49.998Z,18.67
2023-01-25T02:47:16.464Z,18.64
2023-01-25T02:49:42.951Z,18.63
2023-01-25T02:52:09.452Z,18.60
2023-01-25T02:54:35.932Z,18.59
2023-01-25T02:57:02.585Z,18.59
2023-01-25T02:59:29.128Z,18.58
2023-01-25T03:01:55.681Z,18.55
2023-01-25T03:04:22.369Z,18.55
2023-01-25T03:06:48.849Z,18.55
2023-01-25T03:09:15.283Z,18.52
2023-01-25T03:11:42.029Z,18.52
2023-01-25T03:14:08.480Z,18.51
2023-01-25T03:16:35.073Z,18.49
2023-01-25T03:19:01.543Z,18.50
2023-01-25T03:21:28.095Z,18.47
2023-01-25T03:23:58.484Z,18.46
2023-01-25T03:26:26.540Z,18.45
2023-01-25T03:28:53.053Z,18.44
2023-01-25T03:31:19.760Z,18.42
2023-01-25T03:33:46.690Z,18.41
2023-01-25T03:36:13.223Z,18.40
2023-01-25T03:38:39.842Z,18.37
2023-01-25T03:41:06.846Z,18.36
2023-01-25T03:43:33.319Z,18.35
2023-01-25T03:46:01.612Z,18.35
2023-01-25T03:48:28.811Z,18.32
2023-01-25T03:50:57.915Z,18.31
2023-01-25T03:53:29.783Z,18.29
2023-01-25T03:55:59.119Z,18.28
2023-01-25T03:58:26.150Z,18.28
2023-01-25T04:00:55.749Z,18.25
2023-01-25T04:03:22.664Z,18.25
2023-01-25T04:05:49.491Z,18.24
2023-01-25T04:08:16.112Z,18.22
2023-01-25T04:10:42.578Z,18.21
2023-01-25T04:13:09.459Z,18.21
2023-01-25T04:15:36.206Z,18.20
2023-01-25T04:18:02.680Z,18.20
2023-01-25T04:20:29.179Z,18.18
2023-01-25T04:22:55.637Z,18.17
2023-01-25T04:25:22.086Z,18.17
2023-01-25T04:27:50.200Z,18.14
2023-01-25T04:30:16.820Z,18.13
2023-01-25T04:32:43.465Z,18.11
2023-01-25T04:35:10.462Z,18.11
2023-01-25T04:37:37.275Z,18.09
2023-01-25T04:40:04.253Z,18.09
2023-01-25T04:42:30.741Z,18.07
2023-01-25T04:44:57.223Z,18.07
2023-01-25T04:47:23.686Z,18.05
2023-01-25T04:49:50.174Z,18.03
2023-01-25T04:52:16.688Z,18.01
2023-01-25T04:54:43.151Z,18.01
2023-01-25T04:57:09.623Z,17.99
2023-01-25T04:59:36.192Z,18.00
2023-01-25T05:02:02.674Z,18.00
2023-01-25T05:04:29.131Z,17.97
2023-01-25T05:06:55.664Z,17.97
2023-01-25T05:09:22.186Z,17.97
2023-01-25T05:11:48.654Z,17.95
2023-01-25T05:14:15.677Z,17.94
2023-01-25T05:16:42.288Z,17.91
2023-01-25T05:19:12.303Z,17.92
2023-01-25T05:21:57.892Z,17.91
2023-01-25T05:24:35.271Z,17.90
2023-01-25T05:27:05.892Z,17.89
2023-01-25T05:29:37.228Z,17.89
2023-01-25T05:32:06.994Z,17.86
2023-01-25T05:34:34.297Z,17.85
2023-01-25T05:37:01.637Z,17.83
2023-01-25T05:39:28.721Z,17.84
2023-01-25T05:41:55.596Z,17.84
2023-01-25T05:44:23.370Z,17.83
2023-01-25T05:46:50.201Z,17.88
2023-01-25T05:49:17.013Z,17.92
2023-01-25T05:51:44.212Z,17.98
2023-01-25T05:54:15.924Z,18.06
2023-01-25T05:56:43.611Z,18.15
2023-01-25T05:59:11.533Z,18.23
2023-01-25T06:01:38.847Z,18.32
2023-01-25T06:04:05.971Z,18.37
2023-01-25T06:06:32.584Z,18.42
2023-01-25T06:08:59.102Z,18.45
2023-01-25T06:11:25.608Z,18.46
2023-01-25T06:13:52.252Z,18.50
2023-01-25T06:16:42.701Z,18.54
2023-01-25T06:19:09.293Z,18.58
2023-01-25T06:21:38.628Z,18.62
2023-01-25T06:24:08.457Z,18.71
2023-01-25T06:26:35.033Z,18.77
2023-01-25T06:29:01.577Z,18.86
2023-01-25T06:31:28.161Z,18.94
2023-01-25T06:33:54.787Z,19.02
2023-01-25T06:36:22.047Z,19.13
2023-01-25T06:38:53.004Z,19.21
2023-01-25T06:41:20.454Z,19.30
2023-01-25T06:43:49.988Z,19.40
2023-01-25T06:46:16.505Z,19.49
2023-01-25T06:48:43.175Z,19.56
2023-01-25T06:51:12.802Z,19.62
2023-01-25T06:53:42.122Z,19.71
2023-01-25T06:56:11.987Z,19.78
2023-01-25T06:58:39.231Z,19.84
2023-01-25T07:01:12.840Z,19.90
2023-01-25T07:03:39.710Z,19.96
2023-01-25T07:06:08.357Z,20.02
2023-01-25T07:08:36.231Z,20.06
2023-01-25T07:11:05.285Z,20.12
2023-01-25T07:13:34.087Z,20.18
2023-01-25T07:16:05.924Z,20.21
2023-01-25T07:18:33.213Z,20.25
2023-01-25T07:21:08.500Z,20.31
2023-01-25T07:23:36.031Z,20.36
2023-01-25T07:26:02.547Z,20.39
2023-01-25T07:28:29.400Z,20.41
2023-01-25T07:30:55.846Z,20.45
2023-01-25T07:33:22.591Z,20.47
2023-01-25T07:35:50.916Z,20.51
2023-01-25T07:38:17.732Z,20.54
2023-01-25T07:40:44.217Z,20.56
2023-01-25T07:43:10.758Z,20.58
2023-01-25T07:45:37.242Z,20.60
2023-01-25T07:48:10.434Z,20.62
2023-01-25T07:50:36.895Z,20.63
2023-01-25T07:53:03.373Z,20.66
2023-01-25T07:55:31.076Z,20.68
2023-01-25T07:57:57.585Z,20.69
2023-01-25T08:00:25.104Z,20.70
2023-01-25T08:02:52.297Z,20.72
2023-01-25T08:05:19.158Z,20.71
2023-01-25T08:07:46.948Z,20.73
2023-01-25T08:10:13.634Z,20.75
2023-01-25T08:12:40.099Z,20.75
2023-01-25T08:15:08.486Z,20.76
2023-01-25T08:17:35.066Z,20.78
2023-01-25T08:20:01.997Z,20.79
2023-01-25T08:22:28.476Z,20.79
2023-01-25T08:24:55.043Z,20.80
2023-01-25T08:27:21.625Z,20.82
2023-01-25T08:29:50.415Z,20.81
2023-01-25T08:32:17.061Z,20.83
2023-01-25T08:34:43.536Z,20.84
2023-01-25T08:37:09.966Z,20.85
2023-01-25T08:39:36.487Z,20.87
2023-01-25T08:42:02.979Z,20.88
2023-01-25T08:44:29.561Z,20.88
2023-01-25T08:46:56.035Z,20.90
2023-01-25T08:49:22.668Z,20.92
2023-01-25T08:51:50.306Z,20.91
2023-01-25T08:54:16.780Z,20.93
2023-01-25T08:56:43.283Z,20.94
2023-01-25T08:59:12.124Z,20.95
2023-01-25T09:01:39.210Z,20.95
2023-01-25T09:04:05.866Z,20.98
2023-01-25T09:06:33.331Z,21.01
2023-01-25T09:09:04.656Z,21.01
2023-01-25T09:11:35.004Z,21.02
2023-01-25T09:14:01.510Z,21.03
2023-01-25T09:16:28.987Z,21.02
2023-01-25T09:18:57.560Z,21.05
2023-01-25T09:21:24.239Z,21.07
2023-01-25T09:24:05.701Z,21.06
2023-01-25T09:26:34.762Z,21.06
2023-01-25T09:29:01.580Z,21.07
2023-01-25T09:31:29.345Z,21.08
2023-01-25T09:33:57.160Z,21.10
2023-01-25T09:36:23.855Z,21.09
2023-01-25T09:38:50.291Z,21.10
2023-01-25T09:41:44.685Z,21.11
2023-01-25T09:44:40.598Z,21.12
2023-01-25T09:47:29.199Z,21.12
2023-01-25T09:50:26.532Z,21.12
2023-01-25T09:53:14.861Z,21.14
2023-01-25T09:55:41.928Z,21.15
2023-01-25T09:58:18.225Z,21.14
2023-01-25T10:00:48.040Z,21.16
2023-01-25T10:03:22.491Z,21.15
2023-01-25T10:05:56.215Z,21.16
2023-01-25T10:08:51.340Z,21.16
2023-01-25T10:11:25.997Z,21.17
2023-01-25T10:13:53.871Z,21.18
2023-01-25T10:16:26.414Z,21.20
2023-01-25T10:19:00.877Z,21.20
2023-01-25T10:21:49.703Z,21.21
2023-01-25T10:24:34.017Z,21.22
2023-01-25T10:27:21.459Z,21.19
2023-01-25T10:29:49.615Z,21.24
2023-01-25T10:32:25.066Z,21.20
2023-01-25T10:34:57.164Z,21.24
2023-01-25T10:37:36.084Z,21.26
2023-01-25T10:40:09.731Z,21.24
2023-01-25T10:43:00.333Z,21.26
2023-01-25T10:45:26.802Z,21.26
2023-01-25T10:48:03.035Z,21.28
2023-01-25T10:50:52.685Z,21.28
2023-01-25T10:53:22.048Z,21.28
2023-01-25T10:56:21.142Z,21.28
2023-01-25T10:58:54.378Z,21.29
2023-01-25T11:01:31.087Z,21.29
2023-01-25T11:03:58.931Z,21.31
2023-01-25T11:06:38.824Z,21.30
2023-01-25T11:09:31.520Z,21.30
2023-01-25T11:12:00.469Z,21.31
2023-01-25T11:14:29.402Z,21.33
2023-01-25T11:16:57.559Z,21.32
2023-01-25T11:19:28.914Z,21.33
2023-01-25T11:21:57.790Z,21.34
2023-01-25T11:24:36.436Z,21.34
2023-01-25T11:27:13.784Z,21.33
2023-01-25T11:29:40.402Z,21.35
2023-01-25T11:32:21.531Z,21.36
2023-01-25T11:34:50.092Z,21.37
2023-01-25T11:37:42.289Z,21.37
2023-01-25T11:40:36.572Z,21.37
2023-01-25T11:43:33.829Z,21.37
2023-01-25T11:46:21.517Z,21.37
2023-01-25T11:49:26.324Z,21.36
2023-01-25T11:51:54.080Z,21.36
2023-01-25T11:54:27.527Z,21.37
2023-01-25T11:57:08.106Z,21.36
2023-01-25T12:00:02.304Z,21.37
2023-01-25T12:02:50.397Z,21.38
2023-01-25T12:05:37.143Z,21.37
2023-01-25T12:08:23.828Z,21.38
2023-01-25T12:11:06.249Z,21.36
2023-01-25T12:14:02.819Z,21.38
2023-01-25T12:16:44.672Z,21.38
2023-01-25T12:19:35.753Z,21.39
2023-01-25T12:22:02.243Z,21.39
2023-01-25T12:24:33.231Z,21.38
2023-01-25T12:27:05.533Z,21.39
2023-01-25T12:29:40.821Z,21.39
2023-01-25T12:32:13.376Z,21.38
2023-01-25T12:34:44.126Z,21.39
2023-01-25T12:37:20.986Z,21.40
2023-01-25T12:39:57.983Z,21.41
2023-01-25T12:42:29.780Z,21.41
2023-01-25T12:45:05.014Z,21.41
2023-01-25T12:47:44.205Z,21.41
2023-01-25T12:50:13.696Z,21.42
2023-01-25T12:52:51.370Z,21.43
2023-01-25T12:55:19.007Z,21.44
2023-01-25T12:58:00.542Z,21.43
2023-01-25T13:00:53.076Z,21.43
2023-01-25T13:03:41.416Z,21.43
2023-01-25T13:06:30.585Z,21.44
2023-01-25T13:09:21.478Z,21.44
2023-01-25T13:11:48.813Z,21.44
2023-01-25T13:14:18.110Z,21.45
2023-01-25T13:16:53.889Z,21.44
2023-01-25T13:19:31.033Z,21.43
2023-01-25T13:21:59.179Z,21.40
2023-01-25T13:24:26.622Z,21.38
2023-01-25T13:26:53.081Z,21.35
2023-01-25T13:29:46.014Z,21.30
2023-01-25T13:32:35.770Z,21.26
2023-01-25T13:35:02.767Z,21.23
2023-01-25T13:37:33.657Z,21.21
2023-01-25T13:40:35.680Z,21.21
2023-01-25T13:43:05.975Z,21.22
2023-01-25T13:45:36.382Z,21.21
2023-01-25T13:48:08.691Z,21.22
2023-01-25T13:50:40.032Z,21.24
2023-01-25T13:53:18.253Z,21.25
2023-01-25T13:55:54.373Z,21.27
2023-01-25T13:58:34.465Z,21.29
2023-01-25T14:01:08.403Z,21.33
2023-01-25T14:03:40.763Z,21.33
2023-01-25T14:06:16.299Z,21.36
2023-01-25T14:08:45.270Z,21.37
2023-01-25T14:11:19.238Z,21.38
2023-01-25T14:14:00.974Z,21.40
2023-01-25T14:16:30.082Z,21.43
2023-01-25T14:19:17.999Z,21.43
2023-01-25T14:21:44.487Z,21.44
2023-01-25T14:24:11.631Z,21.45
2023-01-25T14:26:41.853Z,21.45
2023-01-25T14:29:31.785Z,21.47
2023-01-25T14:31:59.493Z,21.47
2023-01-25T14:34:26.733Z,21.48
2023-01-25T14:37:25.473Z,21.49
2023-01-25T14:39:52.265Z,21.50
2023-01-25T14:42:19.423Z,21.50
2023-01-25T14:44:46.732Z,21.51
2023-01-25T14:47:30.840Z,21.51
2023-01-25T14:50:38.417Z,21.52
2023-01-25T14:53:21.859Z,21.52
2023-01-25T14:55:49.904Z,21.53
2023-01-25T14:58:25.924Z,21.52
2023-01-25T15:01:02.982Z,21.53
2023-01-25T15:03:31.386Z,21.54
2023-01-25T15:06:03.622Z,21.54
2023-01-25T15:08:36.545Z,21.54
2023-01-25T15:11:21.275Z,21.56
2023-01-25T15:13:48.124Z,21.56
2023-01-25T15:16:16.469Z,21.56
2023-01-25T15:18:43.218Z,21.55
2023-01-25T15:21:16.776Z,21.56
2023-01-25T15:23:45.913Z,21.55
2023-01-25T15:26:36.596Z,21.55
2023-01-25T15:29:17.478Z,21.56
2023-01-25T15:31:44.125Z,21.56
2023-01-25T15:34:24.101Z,21.56
2023-01-25T15:36:50.573Z,21.56
2023-01-25T15:39:19.208Z,21.57
2023-01-25T15:41:47.135Z,21.57
2023-01-25T15:44:13.588Z,21.58
2023-01-25T15:46:43.021Z,21.58
2023-01-25T15:49:16.727Z,21.59
2023-01-25T15:51:43.207Z,21.58
2023-01-25T15:54:09.680Z,21.59
2023-01-25T15:56:37.826Z,21.59
2023-01-25T15:59:13.123Z,21.59
2023-01-25T16:01:39.599Z,21.60
2023-01-25T16:04:06.113Z,21.60
2023-01-25T16:06:41.878Z,21.61
2023-01-25T16:09:23.465Z,21.61
2023-01-25T16:11:55.607Z,21.63
2023-01-25T16:14:23.780Z,21.60
2023-01-25T16:16:52.840Z,21.60
2023-01-25T16:19:22.571Z,21.59
2023-01-25T16:21:49.716Z,21.59
2023-01-25T16:24:16.545Z,21.58
2023-01-25T16:26:50.484Z,21.58
2023-01-25T16:29:16.964Z,21.55
2023-01-25T16:31:43.517Z,21.57
2023-01-25T16:34:10.076Z,21.55
2023-01-25T16:36:39.251Z,21.54
2023-01-25T16:39:15.354Z,21.53
2023-01-25T16:41:41.802Z,21.53
2023-01-25T16:44:09.538Z,21.53
2023-01-25T16:46:36.077Z,21.53
2023-01-25T16:49:09.470Z,21.52
2023-01-25T16:51:36.792Z,21.52
2023-01-25T16:54:03.597Z,21.52
2023-01-25T16:56:33.023Z,21.51
2023-01-25T16:59:04.358Z,21.51
2023-01-25T17:01:30.955Z,21.53
2023-01-25T17:03:57.910Z,21.53
2023-01-25T17:06:25.813Z,21.54
2023-01-25T17:08:55.039Z,21.55
2023-01-25T17:11:24.280Z,21.56
2023-01-25T17:13:52.983Z,21.57
2023-01-25T17:16:20.492Z,21.57
2023-01-25T17:18:47.789Z,21.59
2023-01-25T17:21:14.847Z,21.60
2023-01-25T17:23:42.530Z,21.61
2023-01-25T17:26:12.271Z,21.62
2023-01-25T17:28:39.241Z,21.63
2023-01-25T17:31:12.991Z,21.64
2023-01-25T17:33:39.531Z,21.66
2023-01-25T17:36:06.343Z,21.66
2023-01-25T17:38:32.923Z,21.69
2023-01-25T17:41:10.119Z,21.69
2023-01-25T17:43:37.126Z,21.69
2023-01-25T17:46:22.200Z,21.71
2023-01-25T17:48:48.725Z,21.72
2023-01-25T17:51:15.223Z,21.73
2023-01-25T17:53:41.769Z,21.72
2023-01-25T17:56:09.897Z,21.72
2023-01-25T17:58:46.811Z,21.73
2023-01-25T18:01:19.155Z,21.74
2023-01-25T18:03:46.976Z,21.74
2023-01-25T18:06:17.515Z,21.74
2023-01-25T18:08:46.745Z,21.73
2023-01-25T18:11:15.771Z,21.75
2023-01-25T18:13:45.253Z,21.75
2023-01-25T18:16:12.716Z,21.76
2023-01-25T18:18:41.446Z,21.75
2023-01-25T18:21:13.420Z,21.75
2023-01-25T18:23:41.397Z,21.75
2023-01-25T18:26:25.727Z,21.77
2023-01-25T18:28:59.921Z,21.77
2023-01-25T18:31:26.636Z,21.78
2023-01-25T18:33:53.431Z,21.77
2023-01-25T18:36:20.446Z,21.79
2023-01-25T18:38:46.939Z,21.80
2023-01-25T18:41:13.450Z,21.81
2023-01-25T18:43:39.893Z,21.81
2023-01-25T18:46:06.666Z,21.82
2023-01-25T18:48:33.456Z,21.81
2023-01-25T18:51:09.209Z,21.82
2023-01-25T18:53:37.904Z,21.83
2023-01-25T18:56:07.169Z,21.82
2023-01-25T18:58:35.463Z,21.83
2023-01-25T19:01:11.626Z,21.83
2023-01-25T19:03:38.194Z,21.82
2023-01-25T19:06:04.888Z,21.82
2023-01-25T19:08:36.294Z,21.80
2023-01-25T19:11:06.097Z,21.80
2023-01-25T19:13:38.010Z,21.80
2023-01-25T19:16:12.889Z,21.79
2023-01-25T19:18:45.854Z,21.78
2023-01-25T19:21:22.415Z,21.77
2023-01-25T19:23:49.833Z,21.74
2023-01-25T19:26:18.917Z,21.70
2023-01-25T19:28:46.510Z,21.66
2023-01-25T19:31:15.255Z,21.62
2023-01-25T19:33:42.156Z,21.57
2023-01-25T19:36:15.435Z,21.54
2023-01-25T19:38:42.093Z,21.52
2023-01-25T19:41:12.213Z,21.52
2023-01-25T19:43:41.460Z,21.50
2023-01-25T19:46:10.773Z,21.50
2023-01-25T19:48:38.439Z,21.50
2023-01-25T19:51:15.335Z,21.51
2023-01-25T19:53:47.359Z,21.51
2023-01-25T19:56:16.270Z,21.52
2023-01-25T19:58:44.196Z,21.54
2023-01-25T20:01:15.879Z,21.55
2023-01-25T20:03:42.742Z,21.56
2023-01-25T20:06:10.746Z,21.57
2023-01-25T20:08:39.453Z,21.57
2023-01-25T20:11:19.663Z,21.58
2023-01-25T20:13:46.930Z,21.60
2023-01-25T20:16:17.025Z,21.61
2023-01-25T20:18:44.971Z,21.61
2023-01-25T20:21:13.682Z,21.61
2023-01-25T20:23:42.798Z,21.62
2023-01-25T20:26:15.507Z,21.63
2023-01-25T20:28:43.722Z,21.66
2023-01-25T20:31:38.128Z,21.65
2023-01-25T20:34:10.113Z,21.66
2023-01-25T20:36:36.657Z,21.66
2023-01-25T20:39:04.375Z,21.66
2023-01-25T20:41:30.888Z,21.67
2023-01-25T20:44:04.315Z,21.68
2023-01-25T20:46:33.937Z,21.69
2023-01-25T20:49:01.761Z,21.69
2023-01-25T20:51:28.365Z,21.70
2023-01-25T20:53:54.996Z,21.66
2023-01-25T20:56:22.431Z,21.69
2023-01-25T20:58:53.338Z,21.70
2023-01-25T21:01:25.221Z,21.71
2023-01-25T21:03:54.407Z,21.71
2023-01-25T21:06:20.892Z,21.71
2023-01-25T21:08:47.386Z,21.72
2023-01-25T21:11:14.038Z,21.71
2023-01-25T21:13:40.825Z,21.69
2023-01-25T21:16:07.669Z,21.71
2023-01-25T21:18:39.539Z,21.71
2023-01-25T21:21:14.645Z,21.72
2023-01-25T21:23:42.941Z,21.72
2023-01-25T21:26:13.906Z,21.73
2023-01-25T21:28:40.457Z,21.73
2023-01-25T21:31:09.387Z,21.72
2023-01-25T21:33:36.935Z,21.73
2023-01-25T21:36:08.364Z,21.71
2023-01-25T21:38:39.326Z,21.73
2023-01-25T21:41:08.360Z,21.74
2023-01-25T21:43:55.313Z,21.75
2023-01-25T21:46:26.913Z,21.74
2023-01-25T21:49:12.591Z,21.75
2023-01-25T21:51:46.915Z,21.75
2023-01-25T21:54:22.091Z,21.74
2023-01-25T21:56:50.414Z,21.76
2023-01-25T21:59:17.140Z,21.75
2023-01-25T22:01:44.501Z,21.76
2023-01-25T22:04:12.279Z,21.75
2023-01-25T22:06:39.585Z,21.76
2023-01-25T22:09:06.506Z,21.76
2023-01-25T22:11:33.026Z,21.77
2023-01-25T22:14:01.040Z,21.76
2023-01-25T22:16:29.187Z,21.78
2023-01-25T22:18:56.498Z,21.77
2023-01-25T22:21:25.651Z,21.77
2023-01-25T22:23:52.236Z,21.77
2023-01-25T22:26:21.281Z,21.75
2023-01-25T22:28:53.535Z,21.73
2023-01-25T22:31:28.656Z,21.70
2023-01-25T22:33:56.690Z,21.67
2023-01-25T22:36:25.297Z,21.61
2023-01-25T22:38:52.184Z,21.58
2023-01-25T22:41:21.447Z,21.52
2023-01-25T22:43:48.265Z,21.46
2023-01-25T22:46:17.267Z,21.41
2023-01-25T22:48:44.178Z,21.36
2023-01-25T22:51:14.281Z,21.28
2023-01-25T22:53:41.232Z,21.22
2023-01-25T22:56:11.554Z,21.15
2023-01-25T22:58:39.707Z,21.10
2023-01-25T23:01:10.889Z,21.03
2023-01-25T23:03:37.976Z,20.96
2023-01-25T23:06:11.022Z,20.91
2023-01-25T23:08:38.186Z,20.84
2023-01-25T23:11:40.687Z,20.78
2023-01-25T23:14:29.774Z,20.74
2023-01-25T23:17:16.614Z,20.67
2023-01-25T23:19:43.067Z,20.61
2023-01-25T23:22:09.533Z,20.56
2023-01-25T23:24:39.021Z,20.51
2023-01-25T23:27:05.556Z,20.44
2023-01-25T23:29:32.384Z,20.41
2023-01-25T23:31:59.058Z,20.37
2023-01-25T23:34:25.780Z,20.30
2023-01-25T23:36:52.460Z,20.26
2023-01-25T23:39:19.246Z,20.20
2023-01-25T23:41:45.734Z,20.15
2023-01-25T23:44:12.220Z,20.12
2023-01-25T23:46:38.814Z,20.05
2023-01-25T23:49:05.389Z,19.98
2023-01-25T23:51:31.957Z,19.94
2023-01-25T23:53:58.458Z,19.90
2023-01-25T23:56:25.227Z,19.87
2023-01-25T23:58:51.746Z,19.83
